createdAt,value
2024-02-24T00:02:15.982Z,9.50
2024-02-24T00:04:43.544Z,9.48
2024-02-24T00:07:11.483Z,9.70
2024-02-24T00:09:38.995Z,7.95
2024-02-24T00:12:07.079Z,8.15
2024-02-24T00:14:34.579Z,9.13
2024-02-24T00:17:02.508Z,9.82
2024-02-24T00:19:30.184Z,9.93
2024-02-24T00:21:58.527Z,8.50
2024-02-24T00:24:26.112Z,7.78
2024-02-24T00:26:53.861Z,8.57
2024-02-24T00:29:21.507Z,8.20
2024-02-24T00:31:49.418Z,8.38
2024-02-24T00:34:17.043Z,8.82
2024-02-24T00:36:44.679Z,8.60
2024-02-24T00:39:12.103Z,9.20
2024-02-24T00:41:40.050Z,9.43
2024-02-24T00:44:09.917Z,9.18
2024-02-24T00:46:38.850Z,8.85
2024-02-24T00:49:06.557Z,9.52
2024-02-24T00:51:34.603Z,7.95
2024-02-24T00:54:02.274Z,7.65
2024-02-24T00:56:30.108Z,9.95
2024-02-24T00:58:57.729Z,6.97
2024-02-24T01:01:25.889Z,7.65
2024-02-24T01:03:53.423Z,8.05
2024-02-24T01:06:21.330Z,9.50
2024-02-24T01:08:49.070Z,8.82
2024-02-24T01:11:17.102Z,8.93
2024-02-24T01:13:45.265Z,7.38
2024-02-24T01:16:13.166Z,9.52
2024-02-24T01:18:40.575Z,8.85
2024-02-24T01:21:08.595Z,7.95
2024-02-24T01:23:36.173Z,8.65
2024-02-24T01:26:04.173Z,7.85
2024-02-24T01:28:32.019Z,10.18
2024-02-24T01:31:00.063Z,6.63
2024-02-24T01:33:27.845Z,8.15
2024-02-24T01:35:56.147Z,7.32
2024-02-24T01:38:24.537Z,8.07
2024-02-24T01:40:52.330Z,9.02
2024-02-24T01:43:30.636Z,9.20
2024-02-24T01:45:59.784Z,8.45
2024-02-24T01:48:28.176Z,7.82
2024-02-24T01:50:56.858Z,8.15
2024-02-24T01:53:25.392Z,7.40
2024-02-24T01:55:54.690Z,7.28
2024-02-24T01:58:22.659Z,8.85
2024-02-24T02:00:51.611Z,8.10
2024-02-24T02:03:19.632Z,8.25
2024-02-24T02:05:49.175Z,9.40
2024-02-24T02:08:17.031Z,8.38
2024-02-24T02:10:48.930Z,8.15
2024-02-24T02:13:16.711Z,7.28
2024-02-24T02:15:44.822Z,8.10
2024-02-24T02:18:12.403Z,6.65
2024-02-24T02:20:40.521Z,8.07
2024-02-24T02:23:08.139Z,7.70
2024-02-24T02:25:36.547Z,7.07
2024-02-24T02:28:04.618Z,6.82
2024-02-24T02:30:32.529Z,7.15
2024-02-24T02:33:00.369Z,8.02
2024-02-24T02:35:29.053Z,8.13
2024-02-24T02:37:57.255Z,7.50
2024-02-24T02:40:25.226Z,8.02
2024-02-24T02:42:52.996Z,7.18
2024-02-24T02:45:20.919Z,7.80
2024-02-24T02:47:48.811Z,8.25
2024-02-24T02:50:16.871Z,7.93
2024-02-24T02:52:45.100Z,6.93
2024-02-24T02:55:13.097Z,7.40
2024-02-24T02:57:40.682Z,6.82
2024-02-24T03:00:08.884Z,6.55
2024-02-24T03:02:36.837Z,6.55
2024-02-24T03:05:05.021Z,8.02
2024-02-24T03:07:32.545Z,6.85
2024-02-24T03:10:01.025Z,7.05
2024-02-24T03:12:29.030Z,9.20
2024-02-24T03:14:57.967Z,7.15
2024-02-24T03:17:25.578Z,7.65
2024-02-24T03:19:53.817Z,7.13
2024-02-24T03:22:21.259Z,7.10
2024-02-24T03:24:49.238Z,6.93
2024-02-24T03:27:16.872Z,7.93
2024-02-24T03:29:44.842Z,6.32
2024-02-24T03:32:12.348Z,6.85
2024-02-24T03:34:40.648Z,8.32
2024-02-24T03:37:08.207Z,7.25
2024-02-24T03:39:38.258Z,6.85
2024-02-24T03:42:05.910Z,7.03
2024-02-24T03:44:33.630Z,7.30
2024-02-24T03:47:01.142Z,7.30
2024-02-24T03:49:29.109Z,7.60
2024-02-24T03:51:56.920Z,7.47
2024-02-24T03:54:25.994Z,8.18
2024-02-24T03:56:53.577Z,7.10
2024-02-24T03:59:21.545Z,6.57
2024-02-24T04:01:49.168Z,7.53
2024-02-24T04:04:17.248Z,8.10
2024-02-24T04:06:45.210Z,6.35
2024-02-24T04:09:13.316Z,7.00
2024-02-24T04:11:41.060Z,6.55
2024-02-24T04:14:09.631Z,6.13
2024-02-24T04:16:37.305Z,7.10
2024-02-24T04:19:05.294Z,7.50
2024-02-24T04:21:32.875Z,7.13
2024-02-24T04:24:00.919Z,6.35
2024-02-24T04:26:28.628Z,7.20
2024-02-24T04:28:56.431Z,5.47
2024-02-24T04:31:24.279Z,7.28
2024-02-24T04:33:52.143Z,6.90
2024-02-24T04:36:20.147Z,7.05
2024-02-24T04:38:48.021Z,8.70
2024-02-24T04:41:15.874Z,7.85
2024-02-24T04:43:43.607Z,6.82
2024-02-24T04:46:11.229Z,7.10
2024-02-24T04:48:39.181Z,6.63
2024-02-24T04:51:06.664Z,6.15
2024-02-24T04:53:35.003Z,5.88
2024-02-24T04:56:02.594Z,6.40
2024-02-24T04:58:30.793Z,6.40
2024-02-24T05:00:58.324Z,7.88
2024-02-24T05:03:26.274Z,6.97
2024-02-24T05:05:54.217Z,6.10
2024-02-24T05:08:22.102Z,5.38
2024-02-24T05:10:49.722Z,6.55
2024-02-24T05:13:17.558Z,6.10
2024-02-24T05:15:45.158Z,7.22
2024-02-24T05:18:13.133Z,6.32
2024-02-24T05:20:41.480Z,6.22
2024-02-24T05:23:09.337Z,6.22
2024-02-24T05:25:37.548Z,5.53
2024-02-24T05:28:05.453Z,6.03
2024-02-24T05:30:32.970Z,5.45
2024-02-24T05:33:01.005Z,5.07
2024-02-24T05:35:28.627Z,6.32
2024-02-24T05:37:56.855Z,5.38
2024-02-24T05:40:24.491Z,7.32
2024-02-24T05:42:52.944Z,5.30
2024-02-24T05:45:20.348Z,6.97
2024-02-24T05:47:48.151Z,5.15
2024-02-24T05:50:15.840Z,7.50
2024-02-24T05:52:44.160Z,7.70
2024-02-24T05:55:11.716Z,5.10
2024-02-24T05:57:39.755Z,6.25
2024-02-24T06:00:12.330Z,5.28
2024-02-24T06:02:40.476Z,7.68
2024-02-24T06:05:08.156Z,5.07
2024-02-24T06:07:40.048Z,6.32
2024-02-24T06:10:08.888Z,8.25
2024-02-24T06:12:37.132Z,5.55
2024-02-24T06:15:04.963Z,6.10
2024-02-24T06:17:32.948Z,4.53
2024-02-24T06:20:00.503Z,4.80
2024-02-24T06:22:28.828Z,5.53
2024-02-24T06:24:56.353Z,4.95
2024-02-24T06:27:24.330Z,5.88
2024-02-24T06:29:52.391Z,5.20
2024-02-24T06:32:20.312Z,4.15
2024-02-24T06:34:48.169Z,5.35
2024-02-24T06:37:16.041Z,5.20
2024-02-24T06:39:44.015Z,6.93
2024-02-24T06:42:12.107Z,6.90
2024-02-24T06:44:40.820Z,6.32
2024-02-24T06:47:17.832Z,4.18
2024-02-24T06:49:52.748Z,4.93
2024-02-24T06:52:21.187Z,5.05
2024-02-24T06:54:48.653Z,4.97
2024-02-24T06:57:16.678Z,5.47
2024-02-24T06:59:46.606Z,5.40
2024-02-24T07:02:15.471Z,5.05
2024-02-24T07:04:43.865Z,4.60
2024-02-24T07:07:12.041Z,5.80
2024-02-24T07:09:39.760Z,3.80
2024-02-24T07:12:08.145Z,5.82
2024-02-24T07:14:36.349Z,4.70
2024-02-24T07:17:05.218Z,4.22
2024-02-24T07:19:33.303Z,5.18
2024-02-24T07:22:01.398Z,4.45
2024-02-24T07:24:28.862Z,5.45
2024-02-24T07:26:56.605Z,4.47
2024-02-24T07:29:24.173Z,5.50
2024-02-24T07:31:52.132Z,5.15
2024-02-24T07:34:20.089Z,6.22
2024-02-24T07:36:48.324Z,6.20
2024-02-24T07:39:15.914Z,6.07
2024-02-24T07:41:43.888Z,7.30
2024-02-24T07:44:11.304Z,6.50
2024-02-24T07:46:39.422Z,4.57
2024-02-24T07:49:07.391Z,5.70
2024-02-24T07:51:35.398Z,11.38
2024-02-24T07:54:03.496Z,9.40
2024-02-24T07:56:31.494Z,12.45
2024-02-24T07:58:59.056Z,11.23
2024-02-24T08:01:28.433Z,8.07
2024-02-24T08:03:56.938Z,25.65
2024-02-24T08:06:25.375Z,18.73
2024-02-24T08:08:54.383Z,14.02
2024-02-24T08:11:22.613Z,15.82
2024-02-24T08:13:50.844Z,10.43
2024-02-24T08:16:22.271Z,12.23
2024-02-24T08:18:51.563Z,11.90
2024-02-24T08:21:23.706Z,13.90
2024-02-24T08:23:52.191Z,22.25
2024-02-24T08:26:20.748Z,13.18
2024-02-24T08:28:48.667Z,14.02
2024-02-24T08:31:16.845Z,9.77
2024-02-24T08:33:44.719Z,6.30
2024-02-24T08:36:16.171Z,9.02
2024-02-24T08:38:44.890Z,9.93
2024-02-24T08:41:13.137Z,9.25
2024-02-24T08:43:40.631Z,14.02
2024-02-24T08:46:10.461Z,7.95
2024-02-24T08:48:39.854Z,8.55
2024-02-24T08:51:09.052Z,9.70
2024-02-24T08:53:36.700Z,10.65
2024-02-24T08:56:06.391Z,10.10
2024-02-24T08:58:34.313Z,12.40
2024-02-24T09:01:03.253Z,9.38
2024-02-24T09:03:30.863Z,10.85
2024-02-24T09:05:59.859Z,7.38
2024-02-24T09:08:27.448Z,7.05
2024-02-24T09:10:55.351Z,8.90
2024-02-24T09:13:22.984Z,6.25
2024-02-24T09:15:51.735Z,5.15
2024-02-24T09:18:19.560Z,6.80
2024-02-24T09:20:47.822Z,8.77
2024-02-24T09:23:15.406Z,8.32
2024-02-24T09:25:45.146Z,5.45
2024-02-24T09:28:12.768Z,7.22
2024-02-24T09:30:40.877Z,9.52
2024-02-24T09:33:08.634Z,4.82
2024-02-24T09:35:36.721Z,6.40
2024-02-24T09:38:04.695Z,5.57
2024-02-24T09:40:32.721Z,7.47
2024-02-24T09:43:04.988Z,7.38
2024-02-24T09:45:43.193Z,7.30
2024-02-24T09:48:12.374Z,4.53
2024-02-24T09:50:42.208Z,6.35
2024-02-24T09:53:10.313Z,7.90
2024-02-24T09:55:38.746Z,6.80
2024-02-24T09:58:11.753Z,3.85
2024-02-24T10:00:41.402Z,8.02
2024-02-24T10:03:24.060Z,6.55
2024-02-24T10:05:58.631Z,6.22
2024-02-24T10:08:26.591Z,5.60
2024-02-24T10:10:54.595Z,8.88
2024-02-24T10:13:22.925Z,8.52
2024-02-24T10:15:51.900Z,7.10
2024-02-24T10:18:20.308Z,7.00
2024-02-24T10:20:49.089Z,9.93
2024-02-24T10:23:17.964Z,5.18
2024-02-24T10:25:47.763Z,7.20
2024-02-24T10:28:17.411Z,10.25
2024-02-24T10:30:46.950Z,6.53
2024-02-24T10:33:16.072Z,8.32
2024-02-24T10:35:46.200Z,10.90
2024-02-24T10:38:23.750Z,7.70
2024-02-24T10:41:02.291Z,8.30
2024-02-24T10:43:30.484Z,6.28
2024-02-24T10:45:58.434Z,7.53
2024-02-24T10:48:26.785Z,11.70
2024-02-24T10:50:54.900Z,6.40
2024-02-24T10:53:29.588Z,5.85
2024-02-24T10:58:26.931Z,7.82
2024-02-24T11:00:55.245Z,5.80
2024-02-24T11:03:24.021Z,8.80
2024-02-24T11:05:52.735Z,8.10
2024-02-24T11:08:41.596Z,8.60
2024-02-24T11:11:12.571Z,7.70
2024-02-24T11:14:00.111Z,12.27
2024-02-24T11:16:40.500Z,8.75
2024-02-24T11:19:13.152Z,11.75
2024-02-24T11:22:02.773Z,8.82
2024-02-24T11:24:32.762Z,8.20
2024-02-24T11:27:02.759Z,7.35
2024-02-24T11:29:31.094Z,6.78
2024-02-24T11:32:13.479Z,8.73
2024-02-24T11:34:47.040Z,6.88
2024-02-24T11:37:19.653Z,10.20
2024-02-24T11:39:49.112Z,8.75
2024-02-24T11:42:18.086Z,8.70
2024-02-24T11:44:49.881Z,9.40
2024-02-24T11:47:20.067Z,10.90
2024-02-24T11:49:49.475Z,8.35
2024-02-24T11:52:28.636Z,8.32
2024-02-24T11:54:57.621Z,9.10
2024-02-24T11:57:26.247Z,9.38
2024-02-24T11:59:53.880Z,7.97
2024-02-24T12:02:22.250Z,6.32
2024-02-24T12:04:50.373Z,7.68
2024-02-24T12:07:19.876Z,7.82
2024-02-24T12:09:48.946Z,6.32
2024-02-24T12:12:19.677Z,11.90
2024-02-24T12:14:47.440Z,6.45
2024-02-24T12:17:15.996Z,8.18
2024-02-24T12:19:44.066Z,9.93
2024-02-24T12:22:14.074Z,10.02
2024-02-24T12:24:42.500Z,6.45
2024-02-24T12:27:11.040Z,8.45
2024-02-24T12:29:39.513Z,9.00
2024-02-24T12:32:08.073Z,10.15
2024-02-24T12:34:35.826Z,7.55
2024-02-24T12:37:04.785Z,6.45
2024-02-24T12:39:33.112Z,11.05
2024-02-24T12:42:03.259Z,5.40
2024-02-24T12:44:32.132Z,9.57
2024-02-24T12:47:03.140Z,7.50
2024-02-24T12:49:31.027Z,9.93
2024-02-24T12:51:59.091Z,9.75
2024-02-24T12:54:27.329Z,9.02
2024-02-24T12:56:55.623Z,8.88
2024-02-24T12:59:24.706Z,11.10
2024-02-24T13:01:52.613Z,10.00
2024-02-24T13:04:20.371Z,8.65
2024-02-24T13:06:48.345Z,8.90
2024-02-24T13:09:16.338Z,11.82
2024-02-24T13:11:44.360Z,8.23
2024-02-24T13:14:12.019Z,9.15
2024-02-24T13:16:40.075Z,8.02
2024-02-24T13:19:08.296Z,7.57
2024-02-24T13:21:40.762Z,7.95
2024-02-24T13:24:08.325Z,12.57
2024-02-24T13:26:37.152Z,8.30
2024-02-24T13:29:05.075Z,7.80
2024-02-24T13:31:33.646Z,9.93
2024-02-24T13:34:01.376Z,5.65
2024-02-24T13:36:29.223Z,8.65
2024-02-24T13:38:57.191Z,7.93
2024-02-24T13:41:26.681Z,10.60
2024-02-24T13:43:54.832Z,7.30
2024-02-24T13:46:23.689Z,7.40
2024-02-24T13:49:05.698Z,7.68
2024-02-24T13:51:34.462Z,6.30
2024-02-24T13:54:02.016Z,9.15
2024-02-24T13:56:29.900Z,6.82
2024-02-24T13:58:57.850Z,5.93
2024-02-24T14:01:26.702Z,6.60
2024-02-24T14:03:55.450Z,7.25
2024-02-24T14:06:24.940Z,5.88
2024-02-24T14:08:53.043Z,7.07
2024-02-24T14:11:22.382Z,5.50
2024-02-24T14:13:50.536Z,6.43
2024-02-24T14:16:19.600Z,6.70
2024-02-24T14:18:47.597Z,7.28
2024-02-24T14:21:15.702Z,8.05
2024-02-24T14:23:43.407Z,6.35
2024-02-24T14:26:12.368Z,6.85
2024-02-24T14:28:40.084Z,5.55
2024-02-24T14:31:08.284Z,6.05
2024-02-24T14:33:36.044Z,5.20
2024-02-24T14:36:04.903Z,5.03
2024-02-24T14:38:35.211Z,4.60
2024-02-24T14:41:04.228Z,9.10
2024-02-24T14:43:33.160Z,4.05
2024-02-24T14:46:04.293Z,6.75
2024-02-24T14:48:32.301Z,5.82
2024-02-24T14:51:00.516Z,5.57
2024-02-24T14:53:28.559Z,7.28
2024-02-24T14:55:57.073Z,5.35
2024-02-24T14:58:24.797Z,5.50
2024-02-24T15:00:53.121Z,5.72
2024-02-24T15:03:21.046Z,4.35
2024-02-24T15:05:49.357Z,4.82
2024-02-24T15:08:17.675Z,6.68
2024-02-24T15:10:45.922Z,4.18
2024-02-24T15:13:21.098Z,5.15
2024-02-24T15:15:53.845Z,4.85
2024-02-24T15:18:21.608Z,6.95
2024-02-24T15:20:50.249Z,4.95
2024-02-24T15:23:17.871Z,5.25
2024-02-24T15:25:47.857Z,4.10
2024-02-24T15:28:16.145Z,4.93
2024-02-24T15:30:44.073Z,4.45
2024-02-24T15:33:12.071Z,4.13
2024-02-24T15:35:40.769Z,5.57
2024-02-24T15:38:08.682Z,5.05
2024-02-24T15:40:39.787Z,4.97
2024-02-24T15:43:09.934Z,4.95
2024-02-24T15:45:38.521Z,5.60
2024-02-24T15:48:07.233Z,4.40
2024-02-24T15:50:35.866Z,4.80
2024-02-24T15:53:03.534Z,5.82
2024-02-24T15:55:31.647Z,6.43
2024-02-24T15:58:01.130Z,5.93
2024-02-24T16:00:29.051Z,5.05
2024-02-24T16:02:57.173Z,5.55
2024-02-24T16:05:25.158Z,4.82
2024-02-24T16:07:52.793Z,4.47
2024-02-24T16:10:20.793Z,6.18
2024-02-24T16:12:49.739Z,5.85
2024-02-24T16:15:19.643Z,8.68
2024-02-24T16:17:47.678Z,9.07
2024-02-24T16:20:18.037Z,12.40
2024-02-24T16:22:45.635Z,8.35
2024-02-24T16:25:16.378Z,7.70
2024-02-24T16:27:44.478Z,7.35
2024-02-24T16:30:13.035Z,9.48
2024-02-24T16:32:40.822Z,8.65
2024-02-24T16:35:09.328Z,7.60
2024-02-24T16:37:36.809Z,9.27
2024-02-24T16:40:05.326Z,9.52
2024-02-24T16:42:32.955Z,9.32
2024-02-24T16:45:03.542Z,8.10
2024-02-24T16:47:34.654Z,10.75
2024-02-24T16:50:04.422Z,10.88
2024-02-24T16:52:32.525Z,10.40
2024-02-24T16:55:01.024Z,10.57
2024-02-24T16:57:29.045Z,9.88
2024-02-24T16:59:57.526Z,13.48
2024-02-24T17:02:25.438Z,11.65
2024-02-24T17:04:56.646Z,14.60
2024-02-24T17:07:24.855Z,14.35
2024-02-24T17:09:52.689Z,10.52
2024-02-24T17:12:20.589Z,10.93
2024-02-24T17:14:51.013Z,11.07
2024-02-24T17:17:19.699Z,9.20
2024-02-24T17:19:47.670Z,10.90
2024-02-24T17:22:15.483Z,11.50
2024-02-24T17:24:43.362Z,13.98
2024-02-24T17:27:11.209Z,8.98
2024-02-24T17:29:39.482Z,11.60
2024-02-24T17:32:07.173Z,14.02
2024-02-24T17:34:36.836Z,10.27
2024-02-24T17:37:04.993Z,14.25
2024-02-24T17:39:32.740Z,16.27
2024-02-24T17:42:00.437Z,13.00
2024-02-24T17:44:28.407Z,12.43
2024-02-24T17:46:55.931Z,12.85
2024-02-24T17:49:26.512Z,15.30
2024-02-24T17:51:54.089Z,15.23
2024-02-24T17:54:24.601Z,12.23
2024-02-24T17:56:52.356Z,12.75
2024-02-24T17:59:21.365Z,13.15
2024-02-24T18:01:50.687Z,14.32
2024-02-24T18:04:18.684Z,16.42
2024-02-24T18:06:46.489Z,11.43
2024-02-24T18:09:14.519Z,12.77
2024-02-24T18:11:42.683Z,12.25
2024-02-24T18:14:10.949Z,15.95
2024-02-24T18:16:38.635Z,12.23
2024-02-24T18:19:08.489Z,12.85
2024-02-24T18:21:36.425Z,15.15
2024-02-24T18:24:04.347Z,12.82
2024-02-24T18:26:33.266Z,13.95
2024-02-24T18:29:02.485Z,16.40
2024-02-24T18:31:30.197Z,10.65
2024-02-24T18:33:58.270Z,14.75
2024-02-24T18:36:28.781Z,12.90
2024-02-24T18:38:56.637Z,15.38
2024-02-24T18:41:24.288Z,11.40
2024-02-24T18:43:52.155Z,13.20
2024-02-24T18:46:22.572Z,13.32
2024-02-24T18:48:51.277Z,11.63
2024-02-24T18:51:18.838Z,13.60
2024-02-24T18:53:46.865Z,17.33
2024-02-24T18:56:14.405Z,13.98
2024-02-24T18:58:42.134Z,13.10
2024-02-24T19:01:10.872Z,16.25
2024-02-24T19:03:38.743Z,17.90
2024-02-24T19:06:06.415Z,11.38
2024-02-24T19:08:34.478Z,13.55
2024-02-24T19:11:13.077Z,11.55
2024-02-24T19:13:41.119Z,13.27
2024-02-24T19:16:10.179Z,15.52
2024-02-24T19:18:38.191Z,16.10
2024-02-24T19:21:06.074Z,16.67
2024-02-24T19:23:35.026Z,11.95
2024-02-24T19:26:02.650Z,12.07
2024-02-24T19:28:30.340Z,13.70
2024-02-24T19:30:59.497Z,11.63
2024-02-24T19:33:27.647Z,16.17
2024-02-24T19:35:55.293Z,12.10
2024-02-24T19:38:24.956Z,13.43
2024-02-24T19:40:52.467Z,14.88
2024-02-24T19:43:20.073Z,12.57
2024-02-24T19:45:47.393Z,13.70
2024-02-24T19:48:15.729Z,12.50
2024-02-24T19:50:48.653Z,12.88
2024-02-24T19:53:16.655Z,12.35
2024-02-24T19:55:44.000Z,13.75
2024-02-24T19:58:21.051Z,16.10
2024-02-24T20:00:56.750Z,13.40
2024-02-24T20:03:24.587Z,15.85
2024-02-24T20:05:52.393Z,13.93
2024-02-24T20:08:20.485Z,14.60
2024-02-24T20:10:48.206Z,15.68
2024-02-24T20:13:16.157Z,14.88
2024-02-24T20:15:43.611Z,14.27
2024-02-24T20:18:11.441Z,15.20
2024-02-24T20:20:38.944Z,14.68
2024-02-24T20:23:06.536Z,15.82
2024-02-24T20:25:33.893Z,17.48
2024-02-24T20:28:03.811Z,16.58
2024-02-24T20:30:31.409Z,18.70
2024-02-24T20:32:59.360Z,19.40
2024-02-24T20:35:28.436Z,18.13
2024-02-24T20:37:56.218Z,15.85
2024-02-24T20:40:23.607Z,17.33
2024-02-24T20:42:51.512Z,17.75
2024-02-24T20:45:18.998Z,17.95
2024-02-24T20:47:47.116Z,18.05
2024-02-24T20:50:14.665Z,16.85
2024-02-24T20:52:42.228Z,19.02
2024-02-24T20:55:09.850Z,18.40
2024-02-24T20:57:38.400Z,17.67
2024-02-24T21:00:06.540Z,22.42
2024-02-24T21:02:34.642Z,17.83
2024-02-24T21:05:02.026Z,19.45
2024-02-24T21:07:29.842Z,20.45
2024-02-24T21:09:58.099Z,19.92
2024-02-24T21:12:25.845Z,20.02
2024-02-24T21:14:53.313Z,20.25
2024-02-24T21:17:21.029Z,18.77
2024-02-24T21:19:48.558Z,20.92
2024-02-24T21:22:16.228Z,23.77
2024-02-24T21:24:43.564Z,20.98
2024-02-24T21:27:11.240Z,19.38
2024-02-24T21:29:38.672Z,21.42
2024-02-24T21:32:07.276Z,20.60
2024-02-24T21:34:35.133Z,23.02
2024-02-24T21:37:02.915Z,21.90
2024-02-24T21:39:30.320Z,23.20
2024-02-24T21:41:58.780Z,21.90
2024-02-24T21:44:26.481Z,22.08
2024-02-24T21:46:54.471Z,22.83
2024-02-24T21:49:22.042Z,21.83
2024-02-24T21:51:49.792Z,22.08
2024-02-24T21:54:17.176Z,18.45
2024-02-24T21:56:47.877Z,22.98
2024-02-24T21:59:15.233Z,20.92
2024-02-24T22:01:42.836Z,20.55
2024-02-24T22:04:10.250Z,25.67
2024-02-24T22:06:38.152Z,22.77
2024-02-24T22:09:06.118Z,25.20
2024-02-24T22:11:35.138Z,23.08
2024-02-24T22:14:03.655Z,20.85
2024-02-24T22:16:31.362Z,20.70
2024-02-24T22:18:58.813Z,23.88
2024-02-24T22:21:27.971Z,20.40
2024-02-24T22:23:56.267Z,21.17
2024-02-24T22:26:25.331Z,23.55
2024-02-24T22:28:53.563Z,23.35
2024-02-24T22:31:21.914Z,20.63
2024-02-24T22:33:49.380Z,22.77
2024-02-24T22:36:17.820Z,21.88
2024-02-24T22:38:46.093Z,20.17
2024-02-24T22:41:13.765Z,25.05
2024-02-24T22:43:41.125Z,22.95
2024-02-24T22:46:09.674Z,22.17
2024-02-24T22:48:37.232Z,22.48
2024-02-24T22:51:05.069Z,23.40
2024-02-24T22:53:32.472Z,22.92
2024-02-24T22:56:00.171Z,23.92
2024-02-24T22:58:27.420Z,24.17
2024-02-24T23:00:55.052Z,22.83
2024-02-24T23:03:23.728Z,25.52
2024-02-24T23:05:52.035Z,23.08
2024-02-24T23:08:20.123Z,21.88
2024-02-24T23:10:47.966Z,22.73
2024-02-24T23:13:15.379Z,21.85
2024-02-24T23:15:43.009Z,23.45
2024-02-24T23:18:10.871Z,22.55
2024-02-24T23:20:38.643Z,23.50
2024-02-24T23:23:06.765Z,21.63
2024-02-24T23:25:34.546Z,26.25
2024-02-24T23:28:02.397Z,21.65
2024-02-24T23:30:30.853Z,26.33
2024-02-24T23:32:58.405Z,22.50
2024-02-24T23:35:26.106Z,24.77
2024-02-24T23:37:53.770Z,24.58
2024-02-24T23:40:21.474Z,24.13
2024-02-24T23:42:49.210Z,23.88
2024-02-24T23:45:17.499Z,25.75
2024-02-24T23:47:45.438Z,25.23
2024-02-24T23:50:13.169Z,23.13
2024-02-24T23:52:41.429Z,24.42
2024-02-24T23:55:09.310Z,20.77
2024-02-24T23:57:36.814Z,25.05
